Elgin, Minnesota
Current Conditions -  °F | °C
As of 2:34 AM on Sunday 26 Oct 2014 (Local Time) from K9MN Reporting Station
Clear Clear  
Wind Chill: 43°   Ceiling: Unl
Heat Index: 43°   Visibility: 10mi
Dew Point: 29°   Wind: 0mph
Humidity: 58%   Direction: NA
Pressure: 30.05"   Gusts: NA
Location:  44.13°N, 92.25°W
Report Text: K9MN 260734Z AUTO 00000KT 10SM CLR 06/M01 A3005 RMK AO1 T00631015
Loading
Personal Weather Stations






























Interactive Weather Map
Tropical Storm Tracking
New forecast layout! Learn more

10-Day Weather Forecast

Advertisements
Track Severe Weather on mobile